sensor_id;sensor_type;location;lat;lon;timestamp;P1;durP1;ratioP1;P2;durP2;ratioP2
3439;SDS011;1733;42.286;22.690;2022-11-20T09:03:00;4.20;;;2.83;;
3439;SDS011;1733;42.286;22.690;2022-11-20T09:05:28;4.13;;;2.60;;
3439;SDS011;1733;42.286;22.690;2022-11-20T09:07:55;2.60;;;2.43;;
3439;SDS011;1733;42.286;22.690;2022-11-20T09:10:22;3.03;;;2.73;;
3439;SDS011;1733;42.286;22.690;2022-11-20T09:12:49;6.63;;;3.00;;
3439;SDS011;1733;42.286;22.690;2022-11-20T09:15:16;2.50;;;2.30;;
3439;SDS011;1733;42.286;22.690;2022-11-20T09:17:49;3.10;;;2.83;;
3439;SDS011;1733;42.286;22.690;2022-11-20T09:20:18;5.60;;;3.20;;
3439;SDS011;1733;42.286;22.690;2022-11-20T09:22:45;4.00;;;3.53;;
3439;SDS011;1733;42.286;22.690;2022-11-20T09:25:12;6.00;;;4.07;;
3439;SDS011;1733;42.286;22.690;2022-11-20T09:27:39;3.57;;;2.93;;
3439;SDS011;1733;42.286;22.690;2022-11-20T09:30:09;3.80;;;2.90;;
3439;SDS011;1733;42.286;22.690;2022-11-20T09:32:37;3.80;;;2.47;;
3439;SDS011;1733;42.286;22.690;2022-11-20T09:35:05;2.67;;;2.33;;
3439;SDS011;1733;42.286;22.690;2022-11-20T09:37:34;2.80;;;2.67;;
3439;SDS011;1733;42.286;22.690;2022-11-20T09:40:01;3.20;;;2.73;;
3439;SDS011;1733;42.286;22.690;2022-11-20T09:42:32;4.63;;;2.33;;
3439;SDS011;1733;42.286;22.690;2022-11-20T09:45:10;2.77;;;2.50;;
3439;SDS011;1733;42.286;22.690;2022-11-20T09:47:55;4.00;;;3.60;;
3439;SDS011;1733;42.286;22.690;2022-11-20T09:50:33;4.17;;;3.83;;
3439;SDS011;1733;42.286;22.690;2022-11-20T09:55:54;12.83;;;5.73;;
3439;SDS011;1733;42.286;22.690;2022-11-20T09:58:24;4.80;;;4.37;;
3439;SDS011;1733;42.286;22.690;2022-11-20T10:00:57;5.70;;;5.20;;
3439;SDS011;1733;42.286;22.690;2022-11-20T10:03:32;3.60;;;3.33;;
3439;SDS011;1733;42.286;22.690;2022-11-20T10:06:07;3.80;;;3.50;;
3439;SDS011;1733;42.286;22.690;2022-11-20T10:08:41;11.00;;;9.30;;
3439;SDS011;1733;42.286;22.690;2022-11-20T10:11:13;9.53;;;7.40;;
3439;SDS011;1733;42.286;22.690;2022-11-20T10:13:45;5.80;;;3.80;;
3439;SDS011;1733;42.286;22.690;2022-11-20T10:16:24;14.70;;;7.37;;
3439;SDS011;1733;42.286;22.690;2022-11-20T10:19:04;10.27;;;7.87;;
3439;SDS011;1733;42.286;22.690;2022-11-20T10:21:41;14.03;;;7.90;;
3439;SDS011;1733;42.286;22.690;2022-11-20T10:24:33;8.97;;;7.40;;
3439;SDS011;1733;42.286;22.690;2022-11-20T10:30:19;9.03;;;5.37;;
3439;SDS011;1733;42.286;22.690;2022-11-20T10:32:51;14.17;;;8.40;;
3439;SDS011;1733;42.286;22.690;2022-11-20T10:35:21;7.47;;;5.00;;
3439;SDS011;1733;42.286;22.690;2022-11-20T10:37:54;8.33;;;5.17;;
3439;SDS011;1733;42.286;22.690;2022-11-20T10:40:28;8.70;;;6.87;;
3439;SDS011;1733;42.286;22.690;2022-11-20T10:43:01;10.20;;;5.83;;
3439;SDS011;1733;42.286;22.690;2022-11-20T10:45:36;8.83;;;6.53;;
3439;SDS011;1733;42.286;22.690;2022-11-20T10:48:15;2.80;;;2.60;;
3439;SDS011;1733;42.286;22.690;2022-11-20T10:53:58;1.80;;;1.70;;
3439;SDS011;1733;42.286;22.690;2022-11-20T10:56:35;3.90;;;3.20;;
3439;SDS011;1733;42.286;22.690;2022-11-20T10:59:21;3.30;;;3.00;;
3439;SDS011;1733;42.286;22.690;2022-11-20T11:01:59;6.07;;;5.13;;
3439;SDS011;1733;42.286;22.690;2022-11-20T11:04:32;11.60;;;4.80;;
3439;SDS011;1733;42.286;22.690;2022-11-20T11:07:05;11.47;;;10.30;;
3439;SDS011;1733;42.286;22.690;2022-11-20T11:09:38;9.30;;;8.30;;
3439;SDS011;1733;42.286;22.690;2022-11-20T11:12:10;13.63;;;7.70;;
3439;SDS011;1733;42.286;22.690;2022-11-20T11:14:44;6.73;;;5.60;;
3439;SDS011;1733;42.286;22.690;2022-11-20T11:17:20;3.27;;;2.97;;
3439;SDS011;1733;42.286;22.690;2022-11-20T11:20:03;1.83;;;1.63;;
3439;SDS011;1733;42.286;22.690;2022-11-20T11:22:33;3.50;;;3.20;;
3439;SDS011;1733;42.286;22.690;2022-11-20T11:25:11;9.47;;;6.40;;
3439;SDS011;1733;42.286;22.690;2022-11-20T11:27:48;7.87;;;5.43;;
3439;SDS011;1733;42.286;22.690;2022-11-20T11:30:17;3.17;;;2.90;;
3439;SDS011;1733;42.286;22.690;2022-11-20T11:32:45;3.73;;;2.80;;
3439;SDS011;1733;42.286;22.690;2022-11-20T11:35:19;3.23;;;2.93;;
3439;SDS011;1733;42.286;22.690;2022-11-20T11:37:48;4.43;;;2.97;;
3439;SDS011;1733;42.286;22.690;2022-11-20T11:40:17;5.50;;;4.73;;
3439;SDS011;1733;42.286;22.690;2022-11-20T11:42:46;3.23;;;2.93;;
3439;SDS011;1733;42.286;22.690;2022-11-20T11:45:20;4.03;;;3.43;;
3439;SDS011;1733;42.286;22.690;2022-11-20T11:47:47;4.83;;;4.17;;
3439;SDS011;1733;42.286;22.690;2022-11-20T11:50:18;6.43;;;3.63;;
3439;SDS011;1733;42.286;22.690;2022-11-20T11:52:50;2.90;;;2.70;;
3439;SDS011;1733;42.286;22.690;2022-11-20T11:55:26;28.43;;;3.13;;
3439;SDS011;1733;42.286;22.690;2022-11-20T11:58:02;4.90;;;3.60;;
3439;SDS011;1733;42.286;22.690;2022-11-20T12:00:36;6.37;;;4.90;;
3439;SDS011;1733;42.286;22.690;2022-11-20T12:03:09;5.00;;;2.47;;
3439;SDS011;1733;42.286;22.690;2022-11-20T12:05:42;3.10;;;2.57;;
3439;SDS011;1733;42.286;22.690;2022-11-20T12:08:13;5.77;;;2.30;;
3439;SDS011;1733;42.286;22.690;2022-11-20T12:10:45;1.50;;;1.40;;
3439;SDS011;1733;42.286;22.690;2022-11-20T12:13:30;24.17;;;13.07;;
3439;SDS011;1733;42.286;22.690;2022-11-20T12:16:07;16.63;;;4.67;;
3439;SDS011;1733;42.286;22.690;2022-11-20T12:18:39;5.60;;;3.47;;
3439;SDS011;1733;42.286;22.690;2022-11-20T12:21:10;5.10;;;3.50;;
3439;SDS011;1733;42.286;22.690;2022-11-20T12:23:49;6.27;;;4.00;;
3439;SDS011;1733;42.286;22.690;2022-11-20T12:26:27;4.73;;;2.83;;
3439;SDS011;1733;42.286;22.690;2022-11-20T12:29:13;4.73;;;3.50;;
3439;SDS011;1733;42.286;22.690;2022-11-20T12:31:54;2.03;;;1.63;;
3439;SDS011;1733;42.286;22.690;2022-11-20T12:34:35;3.63;;;2.37;;
3439;SDS011;1733;42.286;22.690;2022-11-20T12:37:18;2.63;;;2.43;;
3439;SDS011;1733;42.286;22.690;2022-11-20T12:39:56;2.50;;;2.00;;
3439;SDS011;1733;42.286;22.690;2022-11-20T12:42:31;3.20;;;2.00;;
3439;SDS011;1733;42.286;22.690;2022-11-20T12:45:34;3.33;;;2.30;;
3439;SDS011;1733;42.286;22.690;2022-11-20T12:56:58;4.20;;;2.37;;
3439;SDS011;1733;42.286;22.690;2022-11-20T12:59:46;6.60;;;2.40;;
3439;SDS011;1733;42.286;22.690;2022-11-20T13:02:27;5.43;;;3.60;;
3439;SDS011;1733;42.286;22.690;2022-11-20T13:05:12;2.03;;;1.63;;
3439;SDS011;1733;42.286;22.690;2022-11-20T13:07:45;1.97;;;1.87;;
3439;SDS011;1733;42.286;22.690;2022-11-20T13:10:14;2.10;;;1.90;;
3439;SDS011;1733;42.286;22.690;2022-11-20T13:12:48;2.40;;;1.77;;
3439;SDS011;1733;42.286;22.690;2022-11-20T13:15:23;2.47;;;2.27;;
3439;SDS011;1733;42.286;22.690;2022-11-20T13:18:04;2.50;;;2.20;;
3439;SDS011;1733;42.286;22.690;2022-11-20T13:20:34;3.43;;;3.23;;
3439;SDS011;1733;42.286;22.690;2022-11-20T13:23:02;3.07;;;2.87;;
3439;SDS011;1733;42.286;22.690;2022-11-20T13:25:29;7.53;;;2.50;;
3439;SDS011;1733;42.286;22.690;2022-11-20T13:27:58;4.13;;;2.53;;
3439;SDS011;1733;42.286;22.690;2022-11-20T13:30:27;4.20;;;3.97;;
3439;SDS011;1733;42.286;22.690;2022-11-20T13:32:56;4.87;;;2.30;;
3439;SDS011;1733;42.286;22.690;2022-11-20T13:35:29;5.10;;;4.40;;
3439;SDS011;1733;42.286;22.690;2022-11-20T13:38:05;4.60;;;4.20;;
3439;SDS011;1733;42.286;22.690;2022-11-20T13:40:34;9.63;;;2.60;;
3439;SDS011;1733;42.286;22.690;2022-11-20T13:43:19;3.80;;;3.40;;
3439;SDS011;1733;42.286;22.690;2022-11-20T13:45:56;4.63;;;2.67;;
3439;SDS011;1733;42.286;22.690;2022-11-20T13:48:26;14.60;;;6.07;;
3439;SDS011;1733;42.286;22.690;2022-11-20T13:53:57;4.97;;;4.40;;
3439;SDS011;1733;42.286;22.690;2022-11-20T13:56:40;3.97;;;2.67;;
3439;SDS011;1733;42.286;22.690;2022-11-20T13:59:20;5.87;;;3.63;;
3439;SDS011;1733;42.286;22.690;2022-11-20T14:01:59;3.80;;;3.40;;
3439;SDS011;1733;42.286;22.690;2022-11-20T14:04:28;3.23;;;2.93;;
3439;SDS011;1733;42.286;22.690;2022-11-20T14:07:02;6.83;;;4.27;;
3439;SDS011;1733;42.286;22.690;2022-11-20T14:09:32;9.27;;;3.60;;
3439;SDS011;1733;42.286;22.690;2022-11-20T14:12:01;11.63;;;4.50;;
3439;SDS011;1733;42.286;22.690;2022-11-20T14:14:30;2.87;;;2.57;;
3439;SDS011;1733;42.286;22.690;2022-11-20T14:17:05;4.13;;;3.10;;
3439;SDS011;1733;42.286;22.690;2022-11-20T14:19:32;4.33;;;3.00;;
3439;SDS011;1733;42.286;22.690;2022-11-20T14:22:09;4.10;;;3.70;;
3439;SDS011;1733;42.286;22.690;2022-11-20T14:24:42;4.70;;;3.70;;
3439;SDS011;1733;42.286;22.690;2022-11-20T14:27:12;5.63;;;3.50;;
3439;SDS011;1733;42.286;22.690;2022-11-20T14:29:40;6.00;;;3.23;;
3439;SDS011;1733;42.286;22.690;2022-11-20T14:32:08;3.53;;;2.80;;
3439;SDS011;1733;42.286;22.690;2022-11-20T14:34:37;4.57;;;4.10;;
3439;SDS011;1733;42.286;22.690;2022-11-20T14:37:06;10.30;;;7.30;;
3439;SDS011;1733;42.286;22.690;2022-11-20T14:39:40;5.37;;;3.73;;
3439;SDS011;1733;42.286;22.690;2022-11-20T14:42:14;3.40;;;3.10;;
3439;SDS011;1733;42.286;22.690;2022-11-20T14:44:42;18.53;;;6.13;;
3439;SDS011;1733;42.286;22.690;2022-11-20T14:47:10;10.03;;;6.23;;
3439;SDS011;1733;42.286;22.690;2022-11-20T14:49:39;15.63;;;10.07;;
3439;SDS011;1733;42.286;22.690;2022-11-20T14:52:12;24.57;;;10.53;;
3439;SDS011;1733;42.286;22.690;2022-11-20T14:54:44;14.23;;;8.20;;
3439;SDS011;1733;42.286;22.690;2022-11-20T14:57:22;15.07;;;6.83;;
3439;SDS011;1733;42.286;22.690;2022-11-20T14:59:51;5.93;;;3.93;;
3439;SDS011;1733;42.286;22.690;2022-11-20T15:02:29;18.60;;;7.87;;
3439;SDS011;1733;42.286;22.690;2022-11-20T15:04:57;10.03;;;6.20;;
3439;SDS011;1733;42.286;22.690;2022-11-20T15:07:31;5.37;;;3.33;;
3439;SDS011;1733;42.286;22.690;2022-11-20T15:09:59;4.80;;;2.77;;
3439;SDS011;1733;42.286;22.690;2022-11-20T15:12:32;4.53;;;1.67;;
3439;SDS011;1733;42.286;22.690;2022-11-20T15:15:00;4.17;;;1.93;;
3439;SDS011;1733;42.286;22.690;2022-11-20T15:17:28;2.03;;;1.83;;
3439;SDS011;1733;42.286;22.690;2022-11-20T15:19:54;4.67;;;3.57;;
3439;SDS011;1733;42.286;22.690;2022-11-20T15:22:21;11.17;;;6.10;;
3439;SDS011;1733;42.286;22.690;2022-11-20T15:24:50;4.43;;;2.80;;
3439;SDS011;1733;42.286;22.690;2022-11-20T15:27:16;2.13;;;1.90;;
3439;SDS011;1733;42.286;22.690;2022-11-20T15:29:43;3.10;;;1.83;;
3439;SDS011;1733;42.286;22.690;2022-11-20T15:32:10;2.03;;;1.83;;
3439;SDS011;1733;42.286;22.690;2022-11-20T15:34:37;3.23;;;2.30;;
3439;SDS011;1733;42.286;22.690;2022-11-20T15:37:04;3.70;;;3.33;;
3439;SDS011;1733;42.286;22.690;2022-11-20T15:39:31;2.80;;;1.77;;
3439;SDS011;1733;42.286;22.690;2022-11-20T15:41:59;4.60;;;2.33;;
3439;SDS011;1733;42.286;22.690;2022-11-20T15:44:26;3.73;;;1.80;;
3439;SDS011;1733;42.286;22.690;2022-11-20T15:46:52;1.80;;;1.70;;
3439;SDS011;1733;42.286;22.690;2022-11-20T15:49:19;2.60;;;2.03;;
3439;SDS011;1733;42.286;22.690;2022-11-20T15:51:48;2.00;;;1.80;;
3439;SDS011;1733;42.286;22.690;2022-11-20T15:54:18;1.53;;;1.43;;
3439;SDS011;1733;42.286;22.690;2022-11-20T15:56:46;2.70;;;2.50;;
3439;SDS011;1733;42.286;22.690;2022-11-20T15:59:14;3.30;;;2.00;;
3439;SDS011;1733;42.286;22.690;2022-11-20T16:01:41;4.90;;;4.50;;
3439;SDS011;1733;42.286;22.690;2022-11-20T16:04:09;3.70;;;3.50;;
3439;SDS011;1733;42.286;22.690;2022-11-20T16:06:37;5.33;;;4.37;;
3439;SDS011;1733;42.286;22.690;2022-11-20T16:09:03;6.60;;;6.00;;
3439;SDS011;1733;42.286;22.690;2022-11-20T16:11:30;6.93;;;5.63;;
3439;SDS011;1733;42.286;22.690;2022-11-20T16:13:57;5.07;;;3.50;;
3439;SDS011;1733;42.286;22.690;2022-11-20T16:16:43;2.97;;;2.77;;
3439;SDS011;1733;42.286;22.690;2022-11-20T16:19:10;5.00;;;4.23;;
3439;SDS011;1733;42.286;22.690;2022-11-20T16:21:37;4.97;;;3.87;;
3439;SDS011;1733;42.286;22.690;2022-11-20T16:24:06;3.33;;;2.50;;
3439;SDS011;1733;42.286;22.690;2022-11-20T16:26:35;2.13;;;2.03;;
3439;SDS011;1733;42.286;22.690;2022-11-20T16:29:02;13.27;;;10.67;;
3439;SDS011;1733;42.286;22.690;2022-11-20T16:31:32;6.00;;;5.50;;
3439;SDS011;1733;42.286;22.690;2022-11-20T16:34:01;17.47;;;12.17;;
3439;SDS011;1733;42.286;22.690;2022-11-20T16:36:30;16.93;;;9.43;;
3439;SDS011;1733;42.286;22.690;2022-11-20T16:38:57;4.30;;;3.90;;
3439;SDS011;1733;42.286;22.690;2022-11-20T16:41:25;16.10;;;12.03;;
3439;SDS011;1733;42.286;22.690;2022-11-20T16:43:53;7.30;;;4.60;;
3439;SDS011;1733;42.286;22.690;2022-11-20T16:46:23;34.67;;;20.60;;
3439;SDS011;1733;42.286;22.690;2022-11-20T16:48:54;14.53;;;5.00;;
3439;SDS011;1733;42.286;22.690;2022-11-20T16:51:23;4.90;;;3.40;;
3439;SDS011;1733;42.286;22.690;2022-11-20T16:53:51;6.03;;;4.50;;
3439;SDS011;1733;42.286;22.690;2022-11-20T16:56:20;9.23;;;5.87;;
3439;SDS011;1733;42.286;22.690;2022-11-20T16:58:49;2.17;;;2.07;;
3439;SDS011;1733;42.286;22.690;2022-11-20T17:01:17;2.37;;;2.17;;
3439;SDS011;1733;42.286;22.690;2022-11-20T17:03:46;5.77;;;3.70;;
3439;SDS011;1733;42.286;22.690;2022-11-20T17:06:19;4.33;;;3.87;;
3439;SDS011;1733;42.286;22.690;2022-11-20T17:08:49;3.40;;;1.60;;
3439;SDS011;1733;42.286;22.690;2022-11-20T17:11:16;10.70;;;6.53;;
3439;SDS011;1733;42.286;22.690;2022-11-20T17:13:44;1.97;;;1.87;;
3439;SDS011;1733;42.286;22.690;2022-11-20T17:16:12;3.70;;;2.80;;
3439;SDS011;1733;42.286;22.690;2022-11-20T17:18:40;4.60;;;4.20;;
3439;SDS011;1733;42.286;22.690;2022-11-20T17:21:08;5.90;;;4.77;;
3439;SDS011;1733;42.286;22.690;2022-11-20T17:23:36;7.13;;;4.33;;
3439;SDS011;1733;42.286;22.690;2022-11-20T17:26:06;5.77;;;4.97;;
3439;SDS011;1733;42.286;22.690;2022-11-20T17:28:34;13.77;;;8.30;;
3439;SDS011;1733;42.286;22.690;2022-11-20T17:31:03;10.97;;;8.17;;
3439;SDS011;1733;42.286;22.690;2022-11-20T17:33:31;6.60;;;2.97;;
3439;SDS011;1733;42.286;22.690;2022-11-20T17:35:59;4.30;;;3.90;;
3439;SDS011;1733;42.286;22.690;2022-11-20T17:38:26;9.67;;;7.07;;
3439;SDS011;1733;42.286;22.690;2022-11-20T17:40:54;10.27;;;7.00;;
3439;SDS011;1733;42.286;22.690;2022-11-20T17:43:28;15.77;;;13.80;;
3439;SDS011;1733;42.286;22.690;2022-11-20T17:45:55;13.83;;;8.63;;
3439;SDS011;1733;42.286;22.690;2022-11-20T17:48:22;9.97;;;7.57;;
3439;SDS011;1733;42.286;22.690;2022-11-20T17:50:50;12.70;;;10.20;;
3439;SDS011;1733;42.286;22.690;2022-11-20T17:53:17;20.83;;;11.47;;
3439;SDS011;1733;42.286;22.690;2022-11-20T17:55:53;21.93;;;11.80;;
3439;SDS011;1733;42.286;22.690;2022-11-20T17:58:39;20.03;;;14.57;;
3439;SDS011;1733;42.286;22.690;2022-11-20T18:01:06;15.93;;;10.03;;
3439;SDS011;1733;42.286;22.690;2022-11-20T18:03:34;28.93;;;18.57;;
3439;SDS011;1733;42.286;22.690;2022-11-20T18:06:06;35.27;;;21.43;;
3439;SDS011;1733;42.286;22.690;2022-11-20T18:08:34;29.40;;;17.20;;
3439;SDS011;1733;42.286;22.690;2022-11-20T18:11:07;25.23;;;13.80;;
3439;SDS011;1733;42.286;22.690;2022-11-20T18:13:35;14.77;;;8.60;;
3439;SDS011;1733;42.286;22.690;2022-11-20T18:16:17;15.47;;;12.97;;
3439;SDS011;1733;42.286;22.690;2022-11-20T18:18:44;15.77;;;10.60;;
3439;SDS011;1733;42.286;22.690;2022-11-20T18:21:10;24.40;;;15.20;;
3439;SDS011;1733;42.286;22.690;2022-11-20T18:23:37;15.43;;;9.97;;
3439;SDS011;1733;42.286;22.690;2022-11-20T18:26:04;16.40;;;8.63;;
3439;SDS011;1733;42.286;22.690;2022-11-20T18:28:35;17.53;;;8.60;;
3439;SDS011;1733;42.286;22.690;2022-11-20T18:31:03;16.80;;;11.50;;
3439;SDS011;1733;42.286;22.690;2022-11-20T18:33:32;16.03;;;9.10;;
3439;SDS011;1733;42.286;22.690;2022-11-20T18:36:07;15.27;;;9.03;;
3439;SDS011;1733;42.286;22.690;2022-11-20T18:38:34;13.10;;;9.23;;
3439;SDS011;1733;42.286;22.690;2022-11-20T18:41:04;11.37;;;8.03;;
3439;SDS011;1733;42.286;22.690;2022-11-20T18:43:31;11.03;;;7.57;;
3439;SDS011;1733;42.286;22.690;2022-11-20T18:46:16;13.00;;;8.73;;
3439;SDS011;1733;42.286;22.690;2022-11-20T18:48:45;19.77;;;11.90;;
3439;SDS011;1733;42.286;22.690;2022-11-20T18:51:11;16.60;;;12.77;;
3439;SDS011;1733;42.286;22.690;2022-11-20T18:53:40;20.33;;;11.33;;
3439;SDS011;1733;42.286;22.690;2022-11-20T18:56:07;14.70;;;12.90;;
3439;SDS011;1733;42.286;22.690;2022-11-20T18:58:34;17.17;;;11.10;;
3439;SDS011;1733;42.286;22.690;2022-11-20T19:01:03;11.47;;;9.43;;
3439;SDS011;1733;42.286;22.690;2022-11-20T19:03:31;25.03;;;16.73;;
3439;SDS011;1733;42.286;22.690;2022-11-20T19:05:59;19.10;;;13.43;;
3439;SDS011;1733;42.286;22.690;2022-11-20T19:08:26;12.70;;;10.70;;
3439;SDS011;1733;42.286;22.690;2022-11-20T19:10:53;26.90;;;14.70;;
3439;SDS011;1733;42.286;22.690;2022-11-20T19:13:20;15.70;;;10.17;;
3439;SDS011;1733;42.286;22.690;2022-11-20T19:15:47;15.47;;;11.27;;
3439;SDS011;1733;42.286;22.690;2022-11-20T19:18:14;14.90;;;10.67;;
3439;SDS011;1733;42.286;22.690;2022-11-20T19:20:41;14.80;;;10.37;;
3439;SDS011;1733;42.286;22.690;2022-11-20T19:23:09;10.53;;;9.37;;
3439;SDS011;1733;42.286;22.690;2022-11-20T19:25:37;18.50;;;10.33;;
3439;SDS011;1733;42.286;22.690;2022-11-20T19:28:04;14.70;;;9.07;;
3439;SDS011;1733;42.286;22.690;2022-11-20T19:30:31;15.67;;;10.70;;
3439;SDS011;1733;42.286;22.690;2022-11-20T19:32:58;17.07;;;12.10;;
3439;SDS011;1733;42.286;22.690;2022-11-20T19:35:25;10.80;;;9.70;;
3439;SDS011;1733;42.286;22.690;2022-11-20T19:37:52;14.20;;;10.17;;
3439;SDS011;1733;42.286;22.690;2022-11-20T19:40:20;12.50;;;10.43;;
3439;SDS011;1733;42.286;22.690;2022-11-20T19:42:47;12.50;;;10.97;;
3439;SDS011;1733;42.286;22.690;2022-11-20T19:45:14;9.03;;;5.97;;
3439;SDS011;1733;42.286;22.690;2022-11-20T19:47:40;11.10;;;7.70;;
3439;SDS011;1733;42.286;22.690;2022-11-20T19:50:07;13.60;;;9.67;;
3439;SDS011;1733;42.286;22.690;2022-11-20T19:52:35;14.00;;;8.93;;
3439;SDS011;1733;42.286;22.690;2022-11-20T19:55:01;11.73;;;6.80;;
3439;SDS011;1733;42.286;22.690;2022-11-20T19:57:30;6.97;;;6.17;;
3439;SDS011;1733;42.286;22.690;2022-11-20T19:59:57;6.70;;;5.40;;
3439;SDS011;1733;42.286;22.690;2022-11-20T20:02:23;6.47;;;5.80;;
3439;SDS011;1733;42.286;22.690;2022-11-20T20:04:50;13.80;;;7.60;;
3439;SDS011;1733;42.286;22.690;2022-11-20T20:07:17;7.57;;;5.80;;
3439;SDS011;1733;42.286;22.690;2022-11-20T20:09:44;5.93;;;5.30;;
3439;SDS011;1733;42.286;22.690;2022-11-20T20:12:10;5.50;;;5.00;;
3439;SDS011;1733;42.286;22.690;2022-11-20T20:14:38;7.67;;;4.70;;
3439;SDS011;1733;42.286;22.690;2022-11-20T20:17:05;4.00;;;3.70;;
3439;SDS011;1733;42.286;22.690;2022-11-20T20:19:32;5.57;;;4.13;;
3439;SDS011;1733;42.286;22.690;2022-11-20T20:21:59;5.90;;;5.30;;
3439;SDS011;1733;42.286;22.690;2022-11-20T20:24:26;7.33;;;4.83;;
3439;SDS011;1733;42.286;22.690;2022-11-20T20:26:53;4.43;;;4.03;;
3439;SDS011;1733;42.286;22.690;2022-11-20T20:29:20;5.47;;;4.97;;
3439;SDS011;1733;42.286;22.690;2022-11-20T20:31:48;6.53;;;5.40;;
3439;SDS011;1733;42.286;22.690;2022-11-20T20:34:15;9.73;;;6.17;;
3439;SDS011;1733;42.286;22.690;2022-11-20T20:36:41;8.87;;;6.10;;
3439;SDS011;1733;42.286;22.690;2022-11-20T20:39:08;6.17;;;5.53;;
3439;SDS011;1733;42.286;22.690;2022-11-20T20:41:36;4.60;;;4.17;;
3439;SDS011;1733;42.286;22.690;2022-11-20T20:44:03;8.07;;;5.50;;
3439;SDS011;1733;42.286;22.690;2022-11-20T20:46:51;9.53;;;5.40;;
3439;SDS011;1733;42.286;22.690;2022-11-20T20:49:18;6.93;;;5.90;;
3439;SDS011;1733;42.286;22.690;2022-11-20T20:51:44;4.43;;;3.97;;
3439;SDS011;1733;42.286;22.690;2022-11-20T20:54:11;6.47;;;4.80;;
3439;SDS011;1733;42.286;22.690;2022-11-20T20:56:38;10.13;;;7.40;;
3439;SDS011;1733;42.286;22.690;2022-11-20T20:59:05;8.37;;;4.57;;
3439;SDS011;1733;42.286;22.690;2022-11-20T21:01:32;8.30;;;6.23;;
3439;SDS011;1733;42.286;22.690;2022-11-20T21:04:00;5.73;;;5.00;;
3439;SDS011;1733;42.286;22.690;2022-11-20T21:06:27;6.77;;;5.43;;
3439;SDS011;1733;42.286;22.690;2022-11-20T21:08:54;4.47;;;4.07;;
3439;SDS011;1733;42.286;22.690;2022-11-20T21:11:22;5.10;;;4.60;;
3439;SDS011;1733;42.286;22.690;2022-11-20T21:13:49;3.83;;;3.40;;
3439;SDS011;1733;42.286;22.690;2022-11-20T21:16:16;4.83;;;3.47;;
3439;SDS011;1733;42.286;22.690;2022-11-20T21:18:44;5.67;;;4.30;;
3439;SDS011;1733;42.286;22.690;2022-11-20T21:21:13;6.03;;;5.43;;
3439;SDS011;1733;42.286;22.690;2022-11-20T21:23:59;9.30;;;6.93;;
3439;SDS011;1733;42.286;22.690;2022-11-20T21:26:26;7.30;;;5.87;;
3439;SDS011;1733;42.286;22.690;2022-11-20T21:28:54;11.80;;;7.90;;
3439;SDS011;1733;42.286;22.690;2022-11-20T21:31:22;9.37;;;6.80;;
3439;SDS011;1733;42.286;22.690;2022-11-20T21:33:51;13.13;;;8.10;;
3439;SDS011;1733;42.286;22.690;2022-11-20T21:36:21;22.77;;;10.97;;
3439;SDS011;1733;42.286;22.690;2022-11-20T21:38:49;25.60;;;18.73;;
3439;SDS011;1733;42.286;22.690;2022-11-20T21:41:18;21.53;;;12.80;;
3439;SDS011;1733;42.286;22.690;2022-11-20T21:43:45;29.10;;;18.23;;
3439;SDS011;1733;42.286;22.690;2022-11-20T21:46:12;14.67;;;10.03;;
3439;SDS011;1733;42.286;22.690;2022-11-20T21:48:41;13.67;;;8.80;;
3439;SDS011;1733;42.286;22.690;2022-11-20T21:51:09;12.33;;;7.00;;
3439;SDS011;1733;42.286;22.690;2022-11-20T21:53:39;14.80;;;7.80;;
3439;SDS011;1733;42.286;22.690;2022-11-20T21:56:07;7.77;;;6.10;;
3439;SDS011;1733;42.286;22.690;2022-11-20T21:58:34;8.47;;;6.40;;
3439;SDS011;1733;42.286;22.690;2022-11-20T22:01:06;5.57;;;5.17;;
3439;SDS011;1733;42.286;22.690;2022-11-20T22:03:33;9.53;;;5.43;;
3439;SDS011;1733;42.286;22.690;2022-11-20T22:05:59;7.17;;;6.20;;
3439;SDS011;1733;42.286;22.690;2022-11-20T22:08:26;8.13;;;6.07;;
3439;SDS011;1733;42.286;22.690;2022-11-20T22:10:55;8.87;;;7.83;;
3439;SDS011;1733;42.286;22.690;2022-11-20T22:13:22;9.43;;;5.63;;
3439;SDS011;1733;42.286;22.690;2022-11-20T22:16:07;7.27;;;4.47;;
3439;SDS011;1733;42.286;22.690;2022-11-20T22:18:35;5.00;;;3.90;;
3439;SDS011;1733;42.286;22.690;2022-11-20T22:21:02;10.73;;;6.07;;
3439;SDS011;1733;42.286;22.690;2022-11-20T22:23:30;5.90;;;5.30;;
3439;SDS011;1733;42.286;22.690;2022-11-20T22:26:01;8.37;;;7.10;;
3439;SDS011;1733;42.286;22.690;2022-11-20T22:28:29;18.07;;;6.97;;
3439;SDS011;1733;42.286;22.690;2022-11-20T22:30:57;8.50;;;7.17;;
3439;SDS011;1733;42.286;22.690;2022-11-20T22:33:24;9.23;;;7.10;;
3439;SDS011;1733;42.286;22.690;2022-11-20T22:35:52;9.33;;;6.60;;
3439;SDS011;1733;42.286;22.690;2022-11-20T22:38:24;9.17;;;6.73;;
3439;SDS011;1733;42.286;22.690;2022-11-20T22:40:51;8.60;;;7.63;;
3439;SDS011;1733;42.286;22.690;2022-11-20T22:43:19;9.60;;;7.30;;
3439;SDS011;1733;42.286;22.690;2022-11-20T22:45:46;8.93;;;5.43;;
3439;SDS011;1733;42.286;22.690;2022-11-20T22:48:13;13.90;;;8.70;;
3439;SDS011;1733;42.286;22.690;2022-11-20T22:50:40;18.77;;;9.90;;
3439;SDS011;1733;42.286;22.690;2022-11-20T22:53:07;10.20;;;5.97;;
3439;SDS011;1733;42.286;22.690;2022-11-20T22:55:34;9.87;;;7.50;;
3439;SDS011;1733;42.286;22.690;2022-11-20T22:58:00;7.80;;;5.87;;
3439;SDS011;1733;42.286;22.690;2022-11-20T23:00:29;11.60;;;7.90;;
3439;SDS011;1733;42.286;22.690;2022-11-20T23:02:56;10.27;;;6.60;;
3439;SDS011;1733;42.286;22.690;2022-11-20T23:05:22;7.50;;;5.93;;
3439;SDS011;1733;42.286;22.690;2022-11-20T23:07:49;7.13;;;5.70;;
3439;SDS011;1733;42.286;22.690;2022-11-20T23:10:16;6.73;;;5.27;;
3439;SDS011;1733;42.286;22.690;2022-11-20T23:12:43;7.17;;;4.97;;
3439;SDS011;1733;42.286;22.690;2022-11-20T23:15:10;5.70;;;4.30;;
3439;SDS011;1733;42.286;22.690;2022-11-20T23:17:38;6.73;;;5.30;;
3439;SDS011;1733;42.286;22.690;2022-11-20T23:20:05;5.67;;;4.60;;
3439;SDS011;1733;42.286;22.690;2022-11-20T23:22:34;5.13;;;4.63;;
3439;SDS011;1733;42.286;22.690;2022-11-20T23:25:01;8.60;;;4.20;;
3439;SDS011;1733;42.286;22.690;2022-11-20T23:27:28;4.80;;;4.30;;
3439;SDS011;1733;42.286;22.690;2022-11-20T23:29:54;6.60;;;4.00;;
3439;SDS011;1733;42.286;22.690;2022-11-20T23:32:23;6.90;;;4.50;;
3439;SDS011;1733;42.286;22.690;2022-11-20T23:34:51;6.40;;;3.50;;
3439;SDS011;1733;42.286;22.690;2022-11-20T23:37:18;4.00;;;3.57;;
3439;SDS011;1733;42.286;22.690;2022-11-20T23:39:45;5.77;;;4.00;;
3439;SDS011;1733;42.286;22.690;2022-11-20T23:42:11;8.03;;;4.90;;
3439;SDS011;1733;42.286;22.690;2022-11-20T23:44:38;5.97;;;5.47;;
3439;SDS011;1733;42.286;22.690;2022-11-20T23:47:05;5.10;;;4.27;;
3439;SDS011;1733;42.286;22.690;2022-11-20T23:49:32;8.87;;;5.03;;
3439;SDS011;1733;42.286;22.690;2022-11-20T23:52:00;8.07;;;5.00;;
3439;SDS011;1733;42.286;22.690;2022-11-20T23:54:27;7.03;;;5.60;;
3439;SDS011;1733;42.286;22.690;2022-11-20T23:56:54;4.70;;;4.00;;
3439;SDS011;1733;42.286;22.690;2022-11-20T23:59:20;6.90;;;4.30;;
